Atyray, Kazakhstan

12:29 PM AQTT on December 28, 2014 (GMT +0500)
Atyrau | Change Station
CLOSE
Current Station
Airport
Location: Atyrau,
Elevation: -72 ft
Nearby Weather Stations

Elev -72 ft 47.12 °N, 51.83 °E | Updated 29 minutes ago

Light Drizzle
Light Drizzle Mist
32 °F
Feels Like 20 °F
N
20
Wind Variable Wind from East

Today
High -- | Low -- °F
--% Chance of Precip.
Yesterday
High -- | Low -- °F
Precip. -- in
9:18 AM 5:49 PM
Waxing Crescent, 45% visible
Pressure 29.95 in
Visibility 0.6 miles
Clouds Overcast 100 ft
Windchill 20 °F
Dew Point 32 °F
Humidity 100%
Rainfall 0.00 in
Snow Depth Not available.
UV 0 out of 12
Pollen Not available.
Air Quality Not available.
Flu Activity Not available.
METAR UATG 280700Z 08009MPS 0900 R14/0900N -DZ BR OVC001 00/00 Q1014 R14/39//45 NOSIG RMK QBB050 QFE762/1017

More Conditions Fewer Conditions

Pressure 29.95 in
Visibility 0.6 miles
Clouds Overcast 100 ft
Windchill 20 °F
Dew Point 32 °F
Humidity 100%
Rainfall 0.00 in
Snow Depth Not available.
UV 0 out of 12
Pollen Not available.
Air Quality Not available.
Flu Activity Not available.
METAR UATG 280700Z 08009MPS 0900 R14/0900N -DZ BR OVC001 00/00 Q1014 R14/39//45 NOSIG RMK QBB050 QFE762/1017

More Conditions Fewer Conditions

10-Day Weather Forecast

Almanac

Astronomy

Dec. 28, 2014 Rise Set
Actual Time
Civil Twilight
Nautical Twilight
Astronomical Twilight
Moon
Length of Visible Light
Length of Day
Tomorrow will be .
, % of the Moon is Illuminated

Today's Extremes

Country Highs Country Lows

Community

WunderPhotos

Upload Photos

1,781,210 photos uploaded!

WunderBlogs® & News

Nearby

Air Quality

  Air Quality AQ Index Pollutant
Not available.

Snow Depth

Station Depth Elevation

Earthquake Activity

City Distance Mag. Time & Date
Minimum magnitude displayed is 2.5.

Coastal Water Temperatures

Place Temperature

Nearby Weather Stations